createdAt,value
2019-03-04T00:02:43.730Z,11.00
2019-03-04T00:05:29.634Z,11.00
2019-03-04T00:08:15.521Z,10.60
2019-03-04T00:11:01.411Z,10.90
2019-03-04T00:13:47.310Z,10.90
2019-03-04T00:16:33.422Z,11.00
2019-03-04T00:19:13.424Z,10.90
2019-03-04T00:21:59.308Z,11.20
2019-03-04T00:24:45.215Z,11.20
2019-03-04T00:27:31.099Z,11.30
2019-03-04T00:30:16.981Z,11.20
2019-03-04T00:33:02.961Z,11.40
2019-03-04T00:35:48.858Z,11.60
2019-03-04T00:38:34.750Z,11.50
2019-03-04T00:41:20.650Z,11.40
2019-03-04T00:44:06.530Z,11.60
2019-03-04T00:46:52.434Z,11.50
2019-03-04T00:49:38.334Z,11.60
2019-03-04T00:52:24.249Z,11.80
2019-03-04T00:55:10.338Z,11.80
2019-03-04T00:57:56.490Z,11.80
2019-03-04T01:00:42.375Z,11.80
2019-03-04T01:03:19.810Z,11.90
2019-03-04T01:06:05.726Z,11.90
2019-03-04T01:08:51.595Z,12.10
2019-03-04T01:11:37.711Z,11.70
2019-03-04T01:14:23.594Z,11.90
2019-03-04T01:17:09.484Z,11.80
2019-03-04T01:19:55.374Z,12.00
2019-03-04T01:22:41.272Z,11.70
2019-03-04T01:25:27.155Z,11.90
2019-03-04T01:28:13.055Z,11.60
2019-03-04T01:30:58.952Z,11.70
2019-03-04T01:33:44.839Z,11.70
2019-03-04T01:36:30.715Z,11.80
2019-03-04T01:39:16.651Z,12.00
2019-03-04T01:42:02.855Z,11.80
2019-03-04T01:44:48.758Z,12.10
2019-03-04T01:47:34.635Z,12.10
2019-03-04T01:50:20.531Z,12.20
2019-03-04T01:53:06.664Z,12.20
2019-03-04T01:55:52.779Z,12.10
2019-03-04T01:58:38.670Z,12.20
2019-03-04T02:01:24.559Z,12.20
2019-03-04T02:04:04.190Z,12.20
2019-03-04T02:06:50.070Z,12.30
2019-03-04T02:09:35.966Z,12.00
2019-03-04T02:12:21.846Z,12.10
2019-03-04T02:15:29.530Z,12.30
2019-03-04T02:18:15.407Z,12.20
2019-03-04T02:21:01.323Z,12.30
2019-03-04T02:23:47.206Z,12.20
2019-03-04T02:26:33.098Z,12.30
2019-03-04T02:29:18.978Z,12.20
2019-03-04T02:32:04.883Z,12.30
2019-03-04T02:34:50.789Z,12.10
2019-03-04T02:37:36.902Z,12.10
2019-03-04T02:40:22.796Z,11.80
2019-03-04T02:43:08.906Z,11.90
2019-03-04T02:45:55.042Z,11.80
2019-03-04T02:48:41.146Z,12.10
2019-03-04T02:51:27.053Z,11.90
2019-03-04T02:54:12.942Z,11.90
2019-03-04T02:56:58.832Z,11.80
2019-03-04T02:59:44.713Z,11.70
2019-03-04T03:02:30.623Z,11.80
2019-03-04T03:05:10.553Z,11.80
2019-03-04T03:07:56.456Z,11.70
2019-03-04T03:10:42.333Z,11.60
2019-03-04T03:13:28.291Z,11.70
2019-03-04T03:16:14.463Z,11.30
2019-03-04T03:19:00.334Z,11.30
2019-03-04T03:21:46.229Z,11.30
2019-03-04T03:24:25.910Z,11.20
2019-03-04T03:27:12.316Z,11.20
2019-03-04T03:29:58.213Z,11.30
2019-03-04T03:32:44.357Z,11.20
2019-03-04T03:35:30.240Z,11.40
2019-03-04T03:38:16.127Z,11.40
2019-03-04T03:41:02.012Z,11.20
2019-03-04T03:43:47.897Z,11.40
2019-03-04T03:46:33.794Z,11.40
2019-03-04T03:49:19.675Z,11.40
2019-03-04T03:52:05.657Z,11.60
2019-03-04T03:54:51.550Z,11.50
2019-03-04T03:57:37.543Z,11.30
2019-03-04T04:00:24.013Z,11.20
2019-03-04T04:03:09.918Z,11.40
2019-03-04T04:05:55.876Z,11.40
2019-03-04T04:08:41.776Z,11.40
2019-03-04T04:11:27.667Z,11.30
2019-03-04T04:14:13.563Z,11.20
2019-03-04T04:16:59.452Z,11.20
2019-03-04T04:19:45.557Z,11.20
2019-03-04T04:22:31.451Z,11.20
2019-03-04T04:25:10.966Z,11.10
2019-03-04T04:27:56.857Z,11.10
2019-03-04T04:30:42.837Z,11.00
2019-03-04T04:33:28.769Z,11.00
2019-03-04T04:36:14.664Z,11.00
2019-03-04T04:39:01.593Z,11.00
2019-03-04T04:41:48.347Z,10.70
2019-03-04T04:44:34.463Z,10.80
2019-03-04T04:47:20.379Z,10.90
2019-03-04T04:50:28.063Z,10.90
2019-03-04T04:53:13.955Z,10.70
2019-03-04T04:56:00.060Z,10.60
2019-03-04T04:58:45.955Z,10.60
2019-03-04T05:01:31.843Z,10.60
2019-03-04T05:04:17.742Z,10.40
2019-03-04T05:07:03.884Z,10.70
2019-03-04T05:09:49.770Z,10.70
2019-03-04T05:12:35.650Z,10.60
2019-03-04T05:15:21.546Z,10.80
2019-03-04T05:18:07.691Z,10.50
2019-03-04T05:20:53.585Z,10.60
2019-03-04T05:23:32.955Z,10.80
2019-03-04T05:26:18.862Z,10.50
2019-03-04T05:29:04.762Z,10.40
2019-03-04T05:31:50.641Z,10.30
2019-03-04T05:34:36.771Z,10.20
2019-03-04T05:37:22.655Z,10.10
2019-03-04T05:40:30.561Z,10.00
2019-03-04T05:43:16.674Z,9.90
2019-03-04T05:46:02.599Z,9.90
2019-03-04T05:48:48.481Z,10.10
2019-03-04T05:51:34.383Z,10.20
2019-03-04T05:54:20.498Z,10.50
2019-03-04T05:57:06.390Z,10.70
2019-03-04T05:59:52.515Z,10.80
2019-03-04T06:02:38.617Z,10.80
2019-03-04T06:05:24.509Z,10.90
2019-03-04T06:11:11.113Z,10.90
2019-03-04T06:13:56.985Z,10.90
2019-03-04T06:16:47.266Z,11.40
2019-03-04T06:19:30.701Z,11.10
2019-03-04T06:22:16.597Z,11.10
2019-03-04T06:24:55.840Z,11.20
2019-03-04T06:27:41.747Z,11.20
2019-03-04T06:30:49.459Z,11.20
2019-03-04T06:33:35.645Z,11.10
2019-03-04T06:36:21.531Z,11.10
2019-03-04T06:39:07.663Z,11.00
2019-03-04T06:41:53.567Z,11.00
2019-03-04T06:44:39.488Z,11.00
2019-03-04T06:47:25.614Z,10.70
2019-03-04T06:50:31.390Z,10.80
2019-03-04T06:53:37.154Z,11.00
2019-03-04T06:56:42.928Z,11.30
2019-03-04T06:59:48.694Z,11.20
2019-03-04T07:02:56.637Z,11.00
2019-03-04T07:06:02.420Z,11.00
2019-03-04T07:09:10.093Z,11.10
2019-03-04T07:11:56.005Z,11.10
2019-03-04T07:14:41.882Z,11.20
2019-03-04T07:17:27.787Z,11.40
2019-03-04T07:20:14.626Z,11.50
2019-03-04T07:23:00.523Z,11.50
2019-03-04T07:25:40.543Z,11.70
2019-03-04T07:28:26.695Z,11.50
2019-03-04T07:31:12.575Z,11.70
2019-03-04T07:33:58.479Z,11.80
2019-03-04T07:36:44.359Z,12.00
2019-03-04T07:39:30.262Z,12.00
2019-03-04T07:42:16.147Z,12.10
2019-03-04T07:45:02.139Z,12.10
2019-03-04T07:47:48.239Z,12.10
2019-03-04T07:50:34.236Z,12.10
2019-03-04T07:53:20.123Z,12.30
2019-03-04T07:56:06.027Z,12.40
2019-03-04T07:58:52.158Z,12.50
2019-03-04T08:01:38.223Z,12.50
2019-03-04T08:04:24.237Z,12.50
2019-03-04T08:07:30.092Z,12.60
2019-03-04T08:10:35.853Z,12.80
2019-03-04T08:13:41.623Z,12.90
2019-03-04T08:16:27.499Z,12.90
2019-03-04T08:19:13.410Z,13.00
2019-03-04T08:21:59.282Z,13.00
2019-03-04T08:24:45.178Z,13.00
2019-03-04T08:27:24.727Z,13.40
2019-03-04T08:30:30.517Z,13.70
2019-03-04T08:33:16.395Z,13.40
2019-03-04T08:36:02.290Z,13.20
2019-03-04T08:38:48.173Z,12.90
2019-03-04T08:41:34.070Z,12.60
2019-03-04T08:44:19.948Z,12.40
2019-03-04T08:47:05.836Z,12.30
2019-03-04T08:49:51.714Z,12.50
2019-03-04T08:52:37.713Z,12.60
2019-03-04T08:55:23.814Z,12.80
2019-03-04T08:58:09.984Z,12.50
2019-03-04T09:00:55.854Z,12.70
2019-03-04T09:03:42.007Z,12.80
2019-03-04T09:06:27.905Z,12.70
2019-03-04T09:09:14.013Z,12.70
2019-03-04T09:11:59.905Z,12.30
2019-03-04T09:14:46.016Z,12.60
2019-03-04T09:17:31.918Z,13.10
2019-03-04T09:20:18.208Z,13.20
2019-03-04T09:23:04.347Z,13.20
2019-03-04T09:26:12.007Z,13.20
2019-03-04T09:28:51.631Z,13.20
2019-03-04T09:31:37.540Z,13.10
2019-03-04T09:34:23.425Z,12.90
2019-03-04T09:37:09.314Z,13.00
2019-03-04T09:39:55.297Z,12.80
2019-03-04T09:42:41.587Z,12.60
2019-03-04T09:45:27.469Z,12.70
2019-03-04T09:48:13.345Z,13.20
2019-03-04T09:50:59.476Z,13.50
2019-03-04T09:53:45.364Z,13.60
2019-03-04T09:56:31.273Z,13.70
2019-03-04T09:59:17.149Z,13.90
2019-03-04T10:02:03.051Z,14.10
2019-03-04T10:05:09.082Z,14.30
2019-03-04T10:08:16.994Z,14.20
2019-03-04T10:11:22.759Z,14.40
2019-03-04T10:14:28.547Z,14.50
2019-03-04T10:17:34.561Z,14.70
2019-03-04T10:20:40.342Z,14.50
2019-03-04T10:23:46.116Z,14.50
2019-03-04T10:26:51.910Z,14.20
2019-03-04T10:29:51.427Z,14.30
2019-03-04T10:32:57.296Z,14.60
2019-03-04T10:36:03.303Z,14.50
2019-03-04T10:39:10.979Z,14.30
2019-03-04T10:42:16.771Z,13.70
2019-03-04T10:45:22.555Z,13.30
2019-03-04T10:48:08.440Z,13.50
2019-03-04T10:50:54.344Z,13.20
2019-03-04T10:53:40.229Z,13.40
2019-03-04T10:56:26.216Z,12.70
2019-03-04T10:59:12.321Z,12.70
2019-03-04T11:01:58.211Z,12.50
2019-03-04T11:04:44.355Z,12.50
2019-03-04T11:07:30.253Z,12.70
2019-03-04T11:10:16.370Z,12.50
2019-03-04T11:13:02.550Z,13.20
2019-03-04T11:15:48.436Z,13.50
2019-03-04T11:18:34.391Z,13.60
2019-03-04T11:21:20.507Z,13.60
2019-03-04T11:24:06.705Z,14.00
2019-03-04T11:26:52.830Z,14.30
2019-03-04T11:29:32.264Z,14.40
2019-03-04T11:35:16.698Z,14.60
2019-03-04T11:41:02.938Z,14.70
2019-03-04T11:46:47.707Z,14.60
2019-03-04T11:52:32.645Z,14.50
2019-03-04T11:55:39.545Z,14.60
2019-03-04T11:58:25.451Z,14.60
2019-03-04T12:01:32.418Z,14.30
2019-03-04T12:04:18.297Z,14.30
2019-03-04T12:07:04.385Z,14.50
2019-03-04T12:09:50.502Z,14.70
2019-03-04T12:15:35.564Z,14.70
2019-03-04T12:21:20.217Z,14.30
2019-03-04T12:24:20.277Z,14.50
2019-03-04T12:27:06.340Z,14.50
2019-03-04T12:29:51.207Z,14.30
2019-03-04T12:32:37.327Z,13.90
2019-03-04T12:35:23.734Z,13.80
2019-03-04T12:38:09.615Z,13.70
2019-03-04T12:40:55.519Z,14.10
2019-03-04T12:43:41.649Z,14.40
2019-03-04T12:46:27.533Z,14.50
2019-03-04T12:49:13.418Z,14.20
2019-03-04T12:51:59.319Z,14.00
2019-03-04T12:54:45.201Z,13.50
2019-03-04T12:57:31.101Z,13.10
2019-03-04T13:00:38.765Z,12.70
2019-03-04T13:03:24.673Z,12.30
2019-03-04T13:24:39.578Z,11.50
2019-03-04T13:27:05.598Z,11.70
2019-03-04T13:29:31.619Z,11.80
2019-03-04T13:31:57.641Z,11.70
2019-03-04T13:34:23.677Z,11.70
2019-03-04T13:36:49.991Z,11.60
2019-03-04T13:39:16.003Z,11.50
2019-03-04T13:41:42.032Z,11.50
2019-03-04T13:44:08.157Z,11.30
2019-03-04T13:46:34.276Z,11.20
2019-03-04T13:49:00.962Z,11.10
2019-03-04T13:51:27.003Z,10.70
2019-03-04T13:53:53.032Z,10.50
2019-03-04T13:56:19.139Z,10.40
2019-03-04T13:58:45.544Z,10.30
2019-03-04T14:01:11.557Z,10.40
2019-03-04T14:03:37.582Z,10.40
2019-03-04T14:06:03.598Z,10.40
2019-03-04T14:08:29.635Z,10.50
2019-03-04T14:10:55.642Z,10.50
2019-03-04T14:13:21.691Z,10.60
2019-03-04T14:15:50.211Z,10.60
2019-03-04T14:18:16.278Z,10.60
2019-03-04T14:20:42.298Z,10.60
2019-03-04T14:23:08.334Z,10.50
2019-03-04T14:25:34.587Z,10.50
2019-03-04T14:28:01.203Z,10.50
2019-03-04T14:30:27.578Z,10.50
2019-03-04T14:32:53.598Z,10.50
2019-03-04T14:35:20.013Z,10.50
2019-03-04T14:37:46.378Z,10.70
2019-03-04T14:40:16.206Z,10.80
2019-03-04T14:42:42.239Z,10.70
2019-03-04T14:45:11.480Z,10.60
2019-03-04T14:47:37.814Z,10.40
2019-03-04T14:50:13.577Z,10.00
2019-03-04T14:52:39.812Z,9.70
2019-03-04T14:55:09.242Z,9.60
2019-03-04T14:57:35.257Z,9.40
2019-03-04T15:00:04.126Z,9.30
2019-03-04T15:02:30.234Z,9.20
2019-03-04T15:04:56.562Z,9.20
2019-03-04T15:07:22.899Z,9.20
2019-03-04T15:09:49.473Z,9.30
2019-03-04T15:12:15.812Z,9.40
2019-03-04T15:14:43.366Z,9.60
2019-03-04T15:17:13.472Z,9.70
2019-03-04T15:19:39.762Z,9.80
2019-03-04T15:22:06.132Z,9.80
2019-03-04T15:24:32.150Z,10.00
2019-03-04T15:26:58.634Z,10.00
2019-03-04T15:29:24.869Z,10.00
2019-03-04T15:31:50.884Z,10.00
2019-03-04T15:34:17.062Z,10.00
2019-03-04T15:36:43.249Z,10.10
2019-03-04T15:39:11.180Z,10.10
2019-03-04T15:41:40.292Z,10.10
2019-03-04T15:44:05.179Z,10.00
2019-03-04T15:46:31.200Z,10.00
2019-03-04T15:48:57.211Z,10.00
2019-03-04T15:51:23.230Z,10.00
2019-03-04T15:53:49.250Z,10.00
2019-03-04T15:56:15.274Z,9.80
2019-03-04T15:58:41.582Z,9.70
2019-03-04T16:01:09.042Z,9.50
2019-03-04T16:03:36.766Z,9.50
2019-03-04T16:06:03.230Z,9.40
2019-03-04T16:08:29.222Z,9.40
2019-03-04T16:10:55.503Z,9.40
2019-03-04T16:13:21.546Z,9.30
2019-03-04T16:15:47.859Z,9.20
2019-03-04T16:18:13.887Z,9.20
2019-03-04T16:20:39.943Z,9.00
2019-03-04T16:23:05.964Z,8.80
2019-03-04T16:25:32.090Z,8.70
2019-03-04T16:28:04.938Z,8.50
2019-03-04T16:30:30.970Z,8.40
2019-03-04T16:32:56.990Z,8.40
2019-03-04T16:35:23.007Z,8.40
2019-03-04T16:37:49.145Z,8.30
2019-03-04T16:40:20.318Z,8.30
2019-03-04T16:42:46.354Z,8.20
2019-03-04T16:45:16.965Z,8.20
2019-03-04T16:47:43.108Z,8.20
2019-03-04T16:50:24.279Z,8.10
2019-03-04T16:52:52.889Z,8.10
2019-03-04T16:55:18.955Z,8.00
2019-03-04T16:57:44.969Z,8.00
2019-03-04T17:00:16.664Z,7.80
2019-03-04T17:02:42.674Z,7.70
2019-03-04T17:05:11.046Z,7.80
2019-03-04T17:07:37.080Z,7.70
2019-03-04T17:10:07.594Z,7.80
2019-03-04T17:12:33.627Z,7.80
2019-03-04T17:14:59.659Z,7.80
2019-03-04T17:17:25.781Z,7.70
2019-03-04T17:19:51.799Z,7.80
2019-03-04T17:22:17.854Z,7.70
2019-03-04T17:24:45.667Z,7.60
2019-03-04T17:27:11.964Z,7.60
2019-03-04T17:29:38.191Z,7.60
2019-03-04T17:32:05.025Z,7.60
2019-03-04T17:34:31.027Z,7.60
2019-03-04T17:36:57.049Z,7.40
2019-03-04T17:39:23.063Z,7.40
2019-03-04T17:41:49.117Z,7.50
2019-03-04T17:44:22.342Z,7.60
2019-03-04T17:46:48.571Z,7.60
2019-03-04T17:49:14.606Z,7.60
2019-03-04T17:51:40.613Z,7.60
2019-03-04T17:54:06.626Z,7.60
2019-03-04T17:56:32.914Z,7.50
2019-03-04T17:58:59.256Z,7.50
2019-03-04T18:01:25.510Z,7.60
2019-03-04T18:03:51.797Z,7.50
2019-03-04T18:06:17.843Z,7.50
2019-03-04T18:08:44.219Z,7.50
2019-03-04T18:11:10.245Z,7.50
2019-03-04T18:13:36.618Z,7.50
2019-03-04T18:16:02.963Z,7.50
2019-03-04T18:18:29.000Z,7.40
2019-03-04T18:20:55.017Z,7.30
2019-03-04T18:23:21.057Z,7.30
2019-03-04T18:26:00.113Z,7.20
2019-03-04T18:29:05.291Z,7.20
2019-03-04T18:31:44.339Z,7.00
2019-03-04T18:34:26.014Z,6.90
2019-03-04T18:37:29.895Z,6.90
2019-03-04T18:40:22.350Z,6.90
2019-03-04T18:42:57.788Z,7.00
2019-03-04T18:45:44.162Z,7.00
2019-03-04T18:48:25.818Z,7.20
2019-03-04T18:50:51.847Z,7.30
2019-03-04T18:53:17.863Z,7.30
2019-03-04T18:55:43.895Z,7.30
2019-03-04T18:58:09.915Z,7.30
2019-03-04T19:00:35.951Z,7.30
2019-03-04T19:03:01.976Z,7.30
2019-03-04T19:05:28.011Z,7.30
2019-03-04T19:07:54.022Z,7.20
2019-03-04T19:10:20.340Z,7.10
2019-03-04T19:12:46.682Z,7.10
2019-03-04T19:15:13.831Z,7.20
2019-03-04T19:17:39.874Z,7.00
2019-03-04T19:20:18.998Z,7.00
2019-03-04T19:22:45.009Z,7.00
2019-03-04T19:25:12.658Z,7.00
2019-03-04T19:27:38.986Z,7.20
2019-03-04T19:30:10.715Z,7.20
2019-03-04T19:32:36.971Z,7.10
2019-03-04T19:35:05.902Z,7.10
2019-03-04T19:37:31.914Z,7.20
2019-03-04T19:39:58.162Z,7.40
2019-03-04T19:42:24.165Z,7.50
2019-03-04T19:44:50.174Z,7.50
2019-03-04T19:47:16.202Z,7.50
2019-03-04T19:49:42.211Z,7.50
2019-03-04T19:52:08.239Z,7.30
2019-03-04T19:54:34.546Z,7.20
2019-03-04T19:57:00.587Z,7.10
2019-03-04T19:59:26.685Z,6.90
2019-03-04T20:01:53.215Z,6.80
2019-03-04T20:04:19.678Z,6.80
2019-03-04T20:06:45.696Z,6.70
2019-03-04T20:09:11.694Z,6.70
2019-03-04T20:11:37.909Z,6.80
2019-03-04T20:14:04.114Z,6.80
2019-03-04T20:16:30.138Z,6.90
2019-03-04T20:18:56.434Z,6.80
2019-03-04T20:21:22.475Z,6.60
2019-03-04T20:23:48.474Z,6.40
2019-03-04T20:26:14.503Z,6.50
2019-03-04T20:28:41.596Z,6.70
2019-03-04T20:31:11.349Z,6.90
2019-03-04T20:33:37.603Z,7.00
2019-03-04T20:36:03.725Z,7.10
2019-03-04T20:38:39.524Z,7.10
2019-03-04T20:41:05.558Z,7.00
2019-03-04T20:43:31.675Z,6.90
2019-03-04T20:45:57.706Z,6.80
2019-03-04T20:48:24.186Z,6.70
2019-03-04T20:50:50.442Z,6.60
2019-03-04T20:53:16.464Z,6.70
2019-03-04T20:55:42.476Z,6.90
2019-03-04T20:58:08.490Z,6.90
2019-03-04T21:00:36.001Z,6.90
2019-03-04T21:03:06.115Z,7.00
2019-03-04T21:05:32.947Z,7.00
2019-03-04T21:07:59.365Z,7.10
2019-03-04T21:10:25.879Z,7.20
2019-03-04T21:12:52.894Z,7.30
2019-03-04T21:15:19.155Z,7.20
2019-03-04T21:17:45.358Z,7.20
2019-03-04T21:20:14.678Z,7.20
2019-03-04T21:22:41.151Z,7.40
2019-03-04T21:25:27.709Z,7.50
2019-03-04T21:27:53.698Z,7.70
2019-03-04T21:30:38.769Z,7.80
2019-03-04T21:33:05.592Z,7.80
2019-03-04T21:35:53.631Z,7.80
2019-03-04T21:38:21.983Z,7.80
2019-03-04T21:40:55.474Z,7.90
2019-03-04T21:43:32.883Z,7.90
2019-03-04T21:46:11.965Z,7.90
2019-03-04T21:48:44.891Z,7.80
2019-03-04T21:51:24.104Z,7.90
2019-03-04T21:53:51.264Z,7.80
2019-03-04T21:56:45.082Z,7.70
2019-03-04T21:59:11.127Z,7.60
2019-03-04T22:01:46.529Z,7.60
2019-03-04T22:04:12.672Z,7.60
2019-03-04T22:06:39.987Z,7.40
2019-03-04T22:09:06.766Z,7.30
2019-03-04T22:11:33.165Z,7.40
2019-03-04T22:13:59.236Z,7.30
2019-03-04T22:16:25.317Z,7.20
2019-03-04T22:18:51.589Z,7.20
2019-03-04T22:21:17.612Z,7.20
2019-03-04T22:23:43.712Z,7.30
2019-03-04T22:26:10.145Z,7.40
2019-03-04T22:28:36.492Z,7.40
2019-03-04T22:31:03.375Z,7.30
2019-03-04T22:33:30.342Z,7.20
2019-03-04T22:35:56.404Z,7.00
2019-03-04T22:38:22.827Z,7.00
2019-03-04T22:40:48.872Z,6.90
2019-03-04T22:43:15.289Z,6.90
2019-03-04T22:45:41.329Z,6.80
2019-03-04T22:48:07.409Z,6.70
2019-03-04T22:50:33.438Z,6.60
2019-03-04T22:52:59.463Z,6.40
2019-03-04T22:55:31.785Z,6.50
2019-03-04T22:57:57.799Z,6.50
2019-03-04T23:00:41.847Z,6.60
2019-03-04T23:03:08.260Z,6.70
2019-03-04T23:05:34.274Z,6.80
2019-03-04T23:08:00.277Z,6.90
2019-03-04T23:10:26.307Z,6.80
2019-03-04T23:12:52.312Z,6.70
2019-03-04T23:15:22.421Z,6.60
2019-03-04T23:17:48.574Z,6.50
2019-03-04T23:20:14.594Z,6.40
2019-03-04T23:22:40.615Z,6.30
2019-03-04T23:25:10.117Z,6.30
2019-03-04T23:27:36.160Z,6.30
2019-03-04T23:30:06.029Z,6.50
2019-03-04T23:32:32.109Z,6.70
2019-03-04T23:34:58.119Z,7.00
2019-03-04T23:37:24.470Z,7.20
2019-03-04T23:39:50.493Z,7.30
2019-03-04T23:42:16.502Z,7.30
2019-03-04T23:44:42.618Z,7.30
2019-03-04T23:47:08.640Z,7.40
2019-03-04T23:49:34.652Z,7.40
2019-03-04T23:52:00.676Z,7.30
2019-03-04T23:54:26.692Z,7.30
2019-03-04T23:56:52.697Z,7.00
2019-03-04T23:59:18.994Z,7.00
